sensor_id;sensor_type;location;lat;lon;timestamp;P1;durP1;ratioP1;P2;durP2;ratioP2
11247;SDS011;5681;53.316;13.950;2024-02-21T00:00:21;26.10;;;7.07;;
11247;SDS011;5681;53.316;13.950;2024-02-21T00:02:48;33.93;;;7.27;;
11247;SDS011;5681;53.316;13.950;2024-02-21T00:05:14;32.93;;;7.43;;
11247;SDS011;5681;53.316;13.950;2024-02-21T00:07:40;40.23;;;7.60;;
11247;SDS011;5681;53.316;13.950;2024-02-21T00:10:09;28.83;;;7.20;;
11247;SDS011;5681;53.316;13.950;2024-02-21T00:12:35;31.45;;;8.05;;
11247;SDS011;5681;53.316;13.950;2024-02-21T00:15:02;39.20;;;8.70;;
11247;SDS011;5681;53.316;13.950;2024-02-21T00:17:28;48.77;;;8.13;;
11247;SDS011;5681;53.316;13.950;2024-02-21T00:19:55;29.93;;;7.60;;
11247;SDS011;5681;53.316;13.950;2024-02-21T00:22:21;26.10;;;7.13;;
11247;SDS011;5681;53.316;13.950;2024-02-21T00:24:47;34.47;;;8.65;;
11247;SDS011;5681;53.316;13.950;2024-02-21T00:27:15;28.83;;;8.13;;
11247;SDS011;5681;53.316;13.950;2024-02-21T00:29:41;32.25;;;8.00;;
11247;SDS011;5681;53.316;13.950;2024-02-21T00:32:08;32.10;;;8.00;;
11247;SDS011;5681;53.316;13.950;2024-02-21T00:34:34;31.17;;;8.73;;
11247;SDS011;5681;53.316;13.950;2024-02-21T00:37:01;35.83;;;8.23;;
11247;SDS011;5681;53.316;13.950;2024-02-21T00:39:27;38.13;;;9.53;;
11247;SDS011;5681;53.316;13.950;2024-02-21T00:41:54;36.40;;;9.00;;
11247;SDS011;5681;53.316;13.950;2024-02-21T00:44:21;34.38;;;8.88;;
11247;SDS011;5681;53.316;13.950;2024-02-21T00:46:48;35.03;;;9.90;;
11247;SDS011;5681;53.316;13.950;2024-02-21T00:49:14;39.03;;;9.13;;
11247;SDS011;5681;53.316;13.950;2024-02-21T00:51:41;38.50;;;9.93;;
11247;SDS011;5681;53.316;13.950;2024-02-21T00:54:07;34.43;;;9.50;;
11247;SDS011;5681;53.316;13.950;2024-02-21T00:56:33;36.77;;;10.20;;
11247;SDS011;5681;53.316;13.950;2024-02-21T00:59:00;35.53;;;9.87;;
11247;SDS011;5681;53.316;13.950;2024-02-21T01:01:27;39.50;;;10.37;;
11247;SDS011;5681;53.316;13.950;2024-02-21T01:03:54;37.43;;;10.17;;
11247;SDS011;5681;53.316;13.950;2024-02-21T01:06:20;40.70;;;10.87;;
11247;SDS011;5681;53.316;13.950;2024-02-21T01:08:47;39.10;;;11.07;;
11247;SDS011;5681;53.316;13.950;2024-02-21T01:11:13;38.77;;;11.07;;
11247;SDS011;5681;53.316;13.950;2024-02-21T01:13:40;33.37;;;10.37;;
11247;SDS011;5681;53.316;13.950;2024-02-21T01:16:06;37.17;;;11.57;;
11247;SDS011;5681;53.316;13.950;2024-02-21T01:18:34;40.67;;;11.10;;
11247;SDS011;5681;53.316;13.950;2024-02-21T01:21:00;40.53;;;12.57;;
11247;SDS011;5681;53.316;13.950;2024-02-21T01:23:27;36.17;;;11.53;;
11247;SDS011;5681;53.316;13.950;2024-02-21T01:25:53;44.10;;;12.13;;
11247;SDS011;5681;53.316;13.950;2024-02-21T01:28:20;38.50;;;12.90;;
11247;SDS011;5681;53.316;13.950;2024-02-21T01:30:46;34.47;;;13.03;;
11247;SDS011;5681;53.316;13.950;2024-02-21T01:33:13;47.60;;;12.60;;
11247;SDS011;5681;53.316;13.950;2024-02-21T01:35:40;40.87;;;14.03;;
11247;SDS011;5681;53.316;13.950;2024-02-21T01:38:07;30.97;;;12.67;;
11247;SDS011;5681;53.316;13.950;2024-02-21T01:40:33;37.20;;;13.77;;
11247;SDS011;5681;53.316;13.950;2024-02-21T01:43:00;38.60;;;14.27;;
11247;SDS011;5681;53.316;13.950;2024-02-21T01:45:26;51.50;;;14.23;;
11247;SDS011;5681;53.316;13.950;2024-02-21T01:47:53;42.73;;;14.13;;
11247;SDS011;5681;53.316;13.950;2024-02-21T01:50:19;36.63;;;13.97;;
11247;SDS011;5681;53.316;13.950;2024-02-21T01:52:47;41.10;;;14.07;;
11247;SDS011;5681;53.316;13.950;2024-02-21T01:55:15;38.10;;;14.07;;
11247;SDS011;5681;53.316;13.950;2024-02-21T01:57:42;42.45;;;14.55;;
11247;SDS011;5681;53.316;13.950;2024-02-21T02:00:10;45.57;;;14.97;;
11247;SDS011;5681;53.316;13.950;2024-02-21T02:02:38;34.13;;;14.07;;
11247;SDS011;5681;53.316;13.950;2024-02-21T02:05:04;37.77;;;14.30;;
11247;SDS011;5681;53.316;13.950;2024-02-21T02:07:32;47.63;;;14.73;;
11247;SDS011;5681;53.316;13.950;2024-02-21T02:09:59;48.10;;;15.43;;
11247;SDS011;5681;53.316;13.950;2024-02-21T02:12:26;40.50;;;14.77;;
11247;SDS011;5681;53.316;13.950;2024-02-21T02:14:57;45.83;;;15.73;;
11247;SDS011;5681;53.316;13.950;2024-02-21T02:17:24;38.27;;;14.83;;
11247;SDS011;5681;53.316;13.950;2024-02-21T02:19:50;41.03;;;14.07;;
11247;SDS011;5681;53.316;13.950;2024-02-21T02:22:19;41.07;;;14.30;;
11247;SDS011;5681;53.316;13.950;2024-02-21T02:24:49;41.27;;;15.83;;
11247;SDS011;5681;53.316;13.950;2024-02-21T02:27:16;44.00;;;14.83;;
11247;SDS011;5681;53.316;13.950;2024-02-21T02:29:42;39.27;;;14.40;;
11247;SDS011;5681;53.316;13.950;2024-02-21T02:32:08;35.60;;;14.60;;
11247;SDS011;5681;53.316;13.950;2024-02-21T02:34:35;39.43;;;13.87;;
11247;SDS011;5681;53.316;13.950;2024-02-21T02:37:01;39.27;;;13.93;;
11247;SDS011;5681;53.316;13.950;2024-02-21T02:39:28;37.07;;;14.07;;
11247;SDS011;5681;53.316;13.950;2024-02-21T02:41:56;46.63;;;14.37;;
11247;SDS011;5681;53.316;13.950;2024-02-21T02:44:22;42.70;;;14.20;;
11247;SDS011;5681;53.316;13.950;2024-02-21T02:46:49;43.53;;;14.17;;
11247;SDS011;5681;53.316;13.950;2024-02-21T02:49:15;42.60;;;14.83;;
11247;SDS011;5681;53.316;13.950;2024-02-21T02:51:41;33.40;;;12.43;;
11247;SDS011;5681;53.316;13.950;2024-02-21T02:54:08;35.13;;;12.63;;
11247;SDS011;5681;53.316;13.950;2024-02-21T02:56:35;33.53;;;12.57;;
11247;SDS011;5681;53.316;13.950;2024-02-21T02:59:03;42.33;;;13.63;;
11247;SDS011;5681;53.316;13.950;2024-02-21T03:01:29;43.60;;;14.30;;
11247;SDS011;5681;53.316;13.950;2024-02-21T03:03:59;35.23;;;13.20;;
11247;SDS011;5681;53.316;13.950;2024-02-21T03:06:26;37.70;;;13.50;;
11247;SDS011;5681;53.316;13.950;2024-02-21T03:08:52;36.73;;;12.67;;
11247;SDS011;5681;53.316;13.950;2024-02-21T03:11:19;35.23;;;12.80;;
11247;SDS011;5681;53.316;13.950;2024-02-21T03:13:46;38.90;;;13.67;;
11247;SDS011;5681;53.316;13.950;2024-02-21T03:16:13;36.73;;;12.53;;
11247;SDS011;5681;53.316;13.950;2024-02-21T03:18:43;38.20;;;13.63;;
11247;SDS011;5681;53.316;13.950;2024-02-21T03:21:09;40.37;;;12.70;;
11247;SDS011;5681;53.316;13.950;2024-02-21T03:23:35;37.08;;;12.45;;
11247;SDS011;5681;53.316;13.950;2024-02-21T03:26:02;33.27;;;12.70;;
11247;SDS011;5681;53.316;13.950;2024-02-21T03:28:29;32.97;;;12.33;;
11247;SDS011;5681;53.316;13.950;2024-02-21T03:30:55;43.43;;;13.63;;
11247;SDS011;5681;53.316;13.950;2024-02-21T03:33:23;36.57;;;12.53;;
11247;SDS011;5681;53.316;13.950;2024-02-21T03:35:49;41.38;;;13.55;;
11247;SDS011;5681;53.316;13.950;2024-02-21T03:38:16;38.35;;;12.50;;
11247;SDS011;5681;53.316;13.950;2024-02-21T03:40:42;36.27;;;13.67;;
11247;SDS011;5681;53.316;13.950;2024-02-21T03:43:08;38.83;;;13.90;;
11247;SDS011;5681;53.316;13.950;2024-02-21T03:45:35;31.07;;;13.53;;
11247;SDS011;5681;53.316;13.950;2024-02-21T03:48:01;35.93;;;12.53;;
11247;SDS011;5681;53.316;13.950;2024-02-21T03:50:29;36.47;;;13.20;;
11247;SDS011;5681;53.316;13.950;2024-02-21T03:52:56;38.83;;;13.30;;
11247;SDS011;5681;53.316;13.950;2024-02-21T03:55:22;34.70;;;12.60;;
11247;SDS011;5681;53.316;13.950;2024-02-21T03:57:48;32.73;;;12.70;;
11247;SDS011;5681;53.316;13.950;2024-02-21T04:00:15;28.47;;;12.37;;
11247;SDS011;5681;53.316;13.950;2024-02-21T04:02:42;33.13;;;13.10;;
11247;SDS011;5681;53.316;13.950;2024-02-21T04:05:08;33.10;;;12.73;;
11247;SDS011;5681;53.316;13.950;2024-02-21T04:07:37;30.57;;;12.33;;
11247;SDS011;5681;53.316;13.950;2024-02-21T04:10:04;25.07;;;12.27;;
11247;SDS011;5681;53.316;13.950;2024-02-21T04:12:31;30.43;;;12.43;;
11247;SDS011;5681;53.316;13.950;2024-02-21T04:14:57;31.60;;;13.20;;
11247;SDS011;5681;53.316;13.950;2024-02-21T04:17:23;30.33;;;11.73;;
11247;SDS011;5681;53.316;13.950;2024-02-21T04:19:50;38.20;;;12.67;;
11247;SDS011;5681;53.316;13.950;2024-02-21T04:22:16;32.23;;;13.17;;
11247;SDS011;5681;53.316;13.950;2024-02-21T04:24:44;35.33;;;13.03;;
11247;SDS011;5681;53.316;13.950;2024-02-21T04:27:10;38.40;;;13.60;;
11247;SDS011;5681;53.316;13.950;2024-02-21T04:29:37;33.90;;;13.53;;
11247;SDS011;5681;53.316;13.950;2024-02-21T04:32:03;29.80;;;13.40;;
11247;SDS011;5681;53.316;13.950;2024-02-21T04:34:30;36.17;;;13.87;;
11247;SDS011;5681;53.316;13.950;2024-02-21T04:36:57;33.70;;;14.23;;
11247;SDS011;5681;53.316;13.950;2024-02-21T04:39:23;31.13;;;14.33;;
11247;SDS011;5681;53.316;13.950;2024-02-21T04:41:51;33.40;;;14.77;;
11247;SDS011;5681;53.316;13.950;2024-02-21T04:44:17;34.70;;;14.77;;
11247;SDS011;5681;53.316;13.950;2024-02-21T04:46:46;33.15;;;15.45;;
11247;SDS011;5681;53.316;13.950;2024-02-21T04:49:13;31.70;;;15.43;;
11247;SDS011;5681;53.316;13.950;2024-02-21T04:51:39;32.90;;;14.88;;
11247;SDS011;5681;53.316;13.950;2024-02-21T04:54:06;28.77;;;17.47;;
11247;SDS011;5681;53.316;13.950;2024-02-21T04:56:33;30.25;;;15.00;;
11247;SDS011;5681;53.316;13.950;2024-02-21T04:59:01;31.60;;;15.75;;
11247;SDS011;5681;53.316;13.950;2024-02-21T05:01:28;32.43;;;16.17;;
11247;SDS011;5681;53.316;13.950;2024-02-21T05:03:54;35.33;;;16.17;;
11247;SDS011;5681;53.316;13.950;2024-02-21T05:06:21;33.45;;;17.35;;
11247;SDS011;5681;53.316;13.950;2024-02-21T05:08:47;32.47;;;16.53;;
11247;SDS011;5681;53.316;13.950;2024-02-21T05:11:14;31.08;;;16.67;;
11247;SDS011;5681;53.316;13.950;2024-02-21T05:13:40;38.37;;;18.10;;
11247;SDS011;5681;53.316;13.950;2024-02-21T05:16:08;32.03;;;17.20;;
11247;SDS011;5681;53.316;13.950;2024-02-21T05:18:34;33.67;;;17.13;;
11247;SDS011;5681;53.316;13.950;2024-02-21T05:21:01;36.55;;;17.35;;
11247;SDS011;5681;53.316;13.950;2024-02-21T05:23:27;52.43;;;35.47;;
11247;SDS011;5681;53.316;13.950;2024-02-21T05:25:54;36.55;;;18.10;;
11247;SDS011;5681;53.316;13.950;2024-02-21T05:28:20;36.05;;;21.67;;
11247;SDS011;5681;53.316;13.950;2024-02-21T05:30:47;39.80;;;21.70;;
11247;SDS011;5681;53.316;13.950;2024-02-21T05:33:14;32.63;;;17.97;;
11247;SDS011;5681;53.316;13.950;2024-02-21T05:35:46;37.38;;;17.90;;
11247;SDS011;5681;53.316;13.950;2024-02-21T05:38:12;33.70;;;19.00;;
11247;SDS011;5681;53.316;13.950;2024-02-21T05:40:39;34.70;;;21.63;;
11247;SDS011;5681;53.316;13.950;2024-02-21T05:43:05;44.13;;;28.00;;
11247;SDS011;5681;53.316;13.950;2024-02-21T05:45:32;39.10;;;23.67;;
11247;SDS011;5681;53.316;13.950;2024-02-21T05:47:59;45.10;;;28.57;;
11247;SDS011;5681;53.316;13.950;2024-02-21T05:50:27;46.17;;;26.40;;
11247;SDS011;5681;53.316;13.950;2024-02-21T05:52:53;36.17;;;21.20;;
11247;SDS011;5681;53.316;13.950;2024-02-21T05:55:20;40.60;;;22.07;;
11247;SDS011;5681;53.316;13.950;2024-02-21T05:57:47;43.67;;;21.53;;
11247;SDS011;5681;53.316;13.950;2024-02-21T06:00:13;45.87;;;27.43;;
11247;SDS011;5681;53.316;13.950;2024-02-21T06:02:41;42.83;;;21.40;;
11247;SDS011;5681;53.316;13.950;2024-02-21T06:05:07;44.47;;;21.83;;
11247;SDS011;5681;53.316;13.950;2024-02-21T06:07:35;42.10;;;21.30;;
11247;SDS011;5681;53.316;13.950;2024-02-21T06:10:02;39.63;;;20.87;;
11247;SDS011;5681;53.316;13.950;2024-02-21T06:12:29;44.13;;;22.37;;
11247;SDS011;5681;53.316;13.950;2024-02-21T06:14:55;41.20;;;21.13;;
11247;SDS011;5681;53.316;13.950;2024-02-21T06:17:21;46.83;;;22.70;;
11247;SDS011;5681;53.316;13.950;2024-02-21T06:19:48;47.10;;;23.87;;
11247;SDS011;5681;53.316;13.950;2024-02-21T06:22:14;48.43;;;23.90;;
11247;SDS011;5681;53.316;13.950;2024-02-21T06:24:42;55.53;;;23.50;;
11247;SDS011;5681;53.316;13.950;2024-02-21T06:27:09;42.10;;;22.77;;
11247;SDS011;5681;53.316;13.950;2024-02-21T06:29:36;46.63;;;23.27;;
11247;SDS011;5681;53.316;13.950;2024-02-21T06:32:03;43.20;;;21.30;;
11247;SDS011;5681;53.316;13.950;2024-02-21T06:34:29;47.47;;;22.60;;
11247;SDS011;5681;53.316;13.950;2024-02-21T06:36:56;36.93;;;22.50;;
11247;SDS011;5681;53.316;13.950;2024-02-21T06:39:22;43.63;;;23.47;;
11247;SDS011;5681;53.316;13.950;2024-02-21T06:41:50;45.53;;;23.13;;
11247;SDS011;5681;53.316;13.950;2024-02-21T06:44:18;50.27;;;21.83;;
11247;SDS011;5681;53.316;13.950;2024-02-21T06:46:45;44.43;;;22.73;;
11247;SDS011;5681;53.316;13.950;2024-02-21T06:49:11;43.97;;;21.17;;
11247;SDS011;5681;53.316;13.950;2024-02-21T06:51:40;44.00;;;22.48;;
11247;SDS011;5681;53.316;13.950;2024-02-21T06:54:07;40.47;;;22.20;;
11247;SDS011;5681;53.316;13.950;2024-02-21T06:56:34;43.50;;;21.70;;
11247;SDS011;5681;53.316;13.950;2024-02-21T06:59:03;38.07;;;21.97;;
11247;SDS011;5681;53.316;13.950;2024-02-21T07:01:29;37.63;;;21.13;;
11247;SDS011;5681;53.316;13.950;2024-02-21T07:03:56;47.07;;;21.60;;
11247;SDS011;5681;53.316;13.950;2024-02-21T07:06:22;41.33;;;22.43;;
11247;SDS011;5681;53.316;13.950;2024-02-21T07:08:49;42.63;;;22.07;;
11247;SDS011;5681;53.316;13.950;2024-02-21T07:11:16;44.57;;;23.60;;
11247;SDS011;5681;53.316;13.950;2024-02-21T07:13:43;48.47;;;25.50;;
11247;SDS011;5681;53.316;13.950;2024-02-21T07:16:10;48.23;;;25.37;;
11247;SDS011;5681;53.316;13.950;2024-02-21T07:18:37;52.70;;;25.07;;
11247;SDS011;5681;53.316;13.950;2024-02-21T07:21:03;44.77;;;24.63;;
11247;SDS011;5681;53.316;13.950;2024-02-21T07:23:30;47.40;;;28.50;;
11247;SDS011;5681;53.316;13.950;2024-02-21T07:25:56;53.20;;;27.57;;
11247;SDS011;5681;53.316;13.950;2024-02-21T07:28:23;50.10;;;25.63;;
11247;SDS011;5681;53.316;13.950;2024-02-21T07:30:49;55.33;;;27.77;;
11247;SDS011;5681;53.316;13.950;2024-02-21T07:33:17;45.50;;;24.90;;
11247;SDS011;5681;53.316;13.950;2024-02-21T07:35:43;50.80;;;26.30;;
11247;SDS011;5681;53.316;13.950;2024-02-21T07:38:10;64.65;;;31.15;;
11247;SDS011;5681;53.316;13.950;2024-02-21T07:40:37;62.60;;;31.13;;
11247;SDS011;5681;53.316;13.950;2024-02-21T07:43:04;50.50;;;27.48;;
11247;SDS011;5681;53.316;13.950;2024-02-21T07:45:30;46.60;;;23.67;;
11247;SDS011;5681;53.316;13.950;2024-02-21T07:47:56;38.37;;;21.43;;
11247;SDS011;5681;53.316;13.950;2024-02-21T07:50:24;41.27;;;21.27;;
11247;SDS011;5681;53.316;13.950;2024-02-21T07:52:51;38.33;;;21.60;;
11247;SDS011;5681;53.316;13.950;2024-02-21T07:55:17;35.40;;;21.67;;
11247;SDS011;5681;53.316;13.950;2024-02-21T07:57:43;42.03;;;22.40;;
11247;SDS011;5681;53.316;13.950;2024-02-21T08:00:10;40.23;;;22.43;;
11247;SDS011;5681;53.316;13.950;2024-02-21T08:02:44;36.33;;;20.83;;
11247;SDS011;5681;53.316;13.950;2024-02-21T08:05:10;39.27;;;20.20;;
11247;SDS011;5681;53.316;13.950;2024-02-21T08:07:38;38.65;;;21.60;;
11247;SDS011;5681;53.316;13.950;2024-02-21T08:10:06;33.80;;;19.60;;
11247;SDS011;5681;53.316;13.950;2024-02-21T08:12:33;30.90;;;19.90;;
11247;SDS011;5681;53.316;13.950;2024-02-21T08:15:00;35.47;;;19.67;;
11247;SDS011;5681;53.316;13.950;2024-02-21T08:17:28;34.67;;;19.77;;
11247;SDS011;5681;53.316;13.950;2024-02-21T08:19:54;34.97;;;20.13;;
11247;SDS011;5681;53.316;13.950;2024-02-21T08:22:20;34.23;;;20.07;;
11247;SDS011;5681;53.316;13.950;2024-02-21T08:24:48;42.28;;;21.27;;
11247;SDS011;5681;53.316;13.950;2024-02-21T08:27:14;41.20;;;21.60;;
11247;SDS011;5681;53.316;13.950;2024-02-21T08:29:41;37.80;;;21.17;;
11247;SDS011;5681;53.316;13.950;2024-02-21T08:32:07;40.55;;;21.35;;
11247;SDS011;5681;53.316;13.950;2024-02-21T08:34:34;46.33;;;22.05;;
11247;SDS011;5681;53.316;13.950;2024-02-21T08:37:00;41.87;;;22.50;;
11247;SDS011;5681;53.316;13.950;2024-02-21T08:39:26;36.72;;;22.30;;
11247;SDS011;5681;53.316;13.950;2024-02-21T08:41:56;38.17;;;21.75;;
11247;SDS011;5681;53.316;13.950;2024-02-21T08:44:23;44.60;;;22.23;;
11247;SDS011;5681;53.316;13.950;2024-02-21T08:46:50;42.53;;;23.40;;
11247;SDS011;5681;53.316;13.950;2024-02-21T08:49:17;47.25;;;21.77;;
11247;SDS011;5681;53.316;13.950;2024-02-21T08:51:43;44.13;;;21.85;;
11247;SDS011;5681;53.316;13.950;2024-02-21T08:54:11;37.08;;;21.17;;
11247;SDS011;5681;53.316;13.950;2024-02-21T08:56:38;36.85;;;21.02;;
11247;SDS011;5681;53.316;13.950;2024-02-21T08:59:05;37.45;;;22.55;;
11247;SDS011;5681;53.316;13.950;2024-02-21T09:01:32;37.90;;;21.30;;
11247;SDS011;5681;53.316;13.950;2024-02-21T09:03:59;36.93;;;22.37;;
11247;SDS011;5681;53.316;13.950;2024-02-21T09:06:25;39.50;;;21.88;;
11247;SDS011;5681;53.316;13.950;2024-02-21T09:08:53;37.45;;;21.58;;
11247;SDS011;5681;53.316;13.950;2024-02-21T09:11:19;36.00;;;21.55;;
11247;SDS011;5681;53.316;13.950;2024-02-21T09:13:46;37.90;;;21.77;;
11247;SDS011;5681;53.316;13.950;2024-02-21T09:16:13;41.17;;;22.02;;
11247;SDS011;5681;53.316;13.950;2024-02-21T09:18:40;33.67;;;20.27;;
11247;SDS011;5681;53.316;13.950;2024-02-21T09:21:07;33.35;;;21.10;;
11247;SDS011;5681;53.316;13.950;2024-02-21T09:23:33;41.33;;;26.90;;
11247;SDS011;5681;53.316;13.950;2024-02-21T09:26:00;35.72;;;20.75;;
11247;SDS011;5681;53.316;13.950;2024-02-21T09:28:28;39.03;;;19.30;;
11247;SDS011;5681;53.316;13.950;2024-02-21T09:30:55;34.53;;;19.60;;
11247;SDS011;5681;53.316;13.950;2024-02-21T09:33:22;33.47;;;18.73;;
11247;SDS011;5681;53.316;13.950;2024-02-21T09:35:49;31.80;;;18.15;;
11247;SDS011;5681;53.316;13.950;2024-02-21T09:38:15;40.42;;;19.50;;
11247;SDS011;5681;53.316;13.950;2024-02-21T09:40:41;31.65;;;19.05;;
11247;SDS011;5681;53.316;13.950;2024-02-21T09:43:08;34.47;;;19.25;;
11247;SDS011;5681;53.316;13.950;2024-02-21T09:45:34;39.47;;;25.40;;
11247;SDS011;5681;53.316;13.950;2024-02-21T09:48:14;32.75;;;20.33;;
11247;SDS011;5681;53.316;13.950;2024-02-21T09:50:50;40.20;;;28.48;;
11247;SDS011;5681;53.316;13.950;2024-02-21T09:53:18;32.15;;;23.73;;
11247;SDS011;5681;53.316;13.950;2024-02-21T09:55:44;32.92;;;22.38;;
11247;SDS011;5681;53.316;13.950;2024-02-21T09:58:11;26.98;;;18.15;;
11247;SDS011;5681;53.316;13.950;2024-02-21T10:00:38;27.02;;;17.38;;
11247;SDS011;5681;53.316;13.950;2024-02-21T10:03:04;30.13;;;16.75;;
11247;SDS011;5681;53.316;13.950;2024-02-21T10:05:35;28.95;;;17.05;;
11247;SDS011;5681;53.316;13.950;2024-02-21T10:08:03;25.88;;;16.55;;
11247;SDS011;5681;53.316;13.950;2024-02-21T10:10:30;26.27;;;16.08;;
11247;SDS011;5681;53.316;13.950;2024-02-21T10:13:06;23.40;;;15.43;;
11247;SDS011;5681;53.316;13.950;2024-02-21T10:15:33;20.67;;;15.90;;
11247;SDS011;5681;53.316;13.950;2024-02-21T10:17:59;21.75;;;14.32;;
11247;SDS011;5681;53.316;13.950;2024-02-21T10:20:28;22.83;;;13.90;;
11247;SDS011;5681;53.316;13.950;2024-02-21T10:23:00;25.35;;;15.55;;
11247;SDS011;5681;53.316;13.950;2024-02-21T10:25:28;26.23;;;14.25;;
11247;SDS011;5681;53.316;13.950;2024-02-21T10:27:55;22.45;;;14.00;;
11247;SDS011;5681;53.316;13.950;2024-02-21T10:30:22;23.40;;;13.55;;
11247;SDS011;5681;53.316;13.950;2024-02-21T10:32:49;21.70;;;13.20;;
11247;SDS011;5681;53.316;13.950;2024-02-21T10:35:25;19.95;;;13.60;;
11247;SDS011;5681;53.316;13.950;2024-02-21T10:37:52;20.33;;;12.90;;
11247;SDS011;5681;53.316;13.950;2024-02-21T10:40:20;21.58;;;12.65;;
11247;SDS011;5681;53.316;13.950;2024-02-21T10:42:48;20.65;;;12.02;;
11247;SDS011;5681;53.316;13.950;2024-02-21T10:45:18;21.95;;;12.77;;
11247;SDS011;5681;53.316;13.950;2024-02-21T10:47:45;17.13;;;12.70;;
11247;SDS011;5681;53.316;13.950;2024-02-21T10:50:15;17.67;;;12.38;;
11247;SDS011;5681;53.316;13.950;2024-02-21T10:52:45;15.07;;;11.00;;
11247;SDS011;5681;53.316;13.950;2024-02-21T10:55:16;18.38;;;11.52;;
11247;SDS011;5681;53.316;13.950;2024-02-21T10:57:49;16.15;;;10.45;;
11247;SDS011;5681;53.316;13.950;2024-02-21T11:00:16;16.85;;;11.27;;
11247;SDS011;5681;53.316;13.950;2024-02-21T11:02:44;17.70;;;11.38;;
11247;SDS011;5681;53.316;13.950;2024-02-21T11:05:10;17.83;;;11.63;;
11247;SDS011;5681;53.316;13.950;2024-02-21T11:07:37;16.95;;;12.13;;
11247;SDS011;5681;53.316;13.950;2024-02-21T11:10:04;15.05;;;11.05;;
11247;SDS011;5681;53.316;13.950;2024-02-21T11:12:32;16.08;;;11.13;;
11247;SDS011;5681;53.316;13.950;2024-02-21T11:15:06;14.82;;;10.57;;
11247;SDS011;5681;53.316;13.950;2024-02-21T11:17:33;15.63;;;9.77;;
11247;SDS011;5681;53.316;13.950;2024-02-21T11:20:10;11.93;;;8.65;;
11247;SDS011;5681;53.316;13.950;2024-02-21T11:22:40;12.13;;;9.00;;
11247;SDS011;5681;53.316;13.950;2024-02-21T11:25:07;10.43;;;8.00;;
11247;SDS011;5681;53.316;13.950;2024-02-21T11:27:36;10.25;;;6.88;;
11247;SDS011;5681;53.316;13.950;2024-02-21T11:30:04;8.60;;;6.85;;
11247;SDS011;5681;53.316;13.950;2024-02-21T11:32:32;9.05;;;6.65;;
11247;SDS011;5681;53.316;13.950;2024-02-21T11:34:59;8.18;;;6.30;;
11247;SDS011;5681;53.316;13.950;2024-02-21T11:37:29;6.38;;;5.78;;
11247;SDS011;5681;53.316;13.950;2024-02-21T11:39:55;7.90;;;5.90;;
11247;SDS011;5681;53.316;13.950;2024-02-21T11:42:22;7.15;;;6.15;;
11247;SDS011;5681;53.316;13.950;2024-02-21T11:44:48;6.93;;;5.47;;
11247;SDS011;5681;53.316;13.950;2024-02-21T11:47:15;7.65;;;5.43;;
11247;SDS011;5681;53.316;13.950;2024-02-21T11:49:44;6.65;;;5.60;;
11247;SDS011;5681;53.316;13.950;2024-02-21T11:52:11;8.68;;;5.72;;
11247;SDS011;5681;53.316;13.950;2024-02-21T11:54:40;6.10;;;5.25;;
11247;SDS011;5681;53.316;13.950;2024-02-21T11:57:07;7.38;;;5.75;;
11247;SDS011;5681;53.316;13.950;2024-02-21T11:59:33;10.43;;;5.60;;
11247;SDS011;5681;53.316;13.950;2024-02-21T12:02:00;6.15;;;5.25;;
11247;SDS011;5681;53.316;13.950;2024-02-21T12:04:28;7.32;;;5.43;;
11247;SDS011;5681;53.316;13.950;2024-02-21T12:06:57;8.40;;;5.32;;
11247;SDS011;5681;53.316;13.950;2024-02-21T12:09:23;6.38;;;4.88;;
11247;SDS011;5681;53.316;13.950;2024-02-21T12:11:57;8.35;;;5.00;;
11247;SDS011;5681;53.316;13.950;2024-02-21T12:14:24;5.95;;;5.18;;
11247;SDS011;5681;53.316;13.950;2024-02-21T12:16:50;7.78;;;4.97;;
11247;SDS011;5681;53.316;13.950;2024-02-21T12:19:17;6.68;;;5.18;;
11247;SDS011;5681;53.316;13.950;2024-02-21T12:21:43;6.40;;;4.70;;
11247;SDS011;5681;53.316;13.950;2024-02-21T12:24:14;7.78;;;5.10;;
11247;SDS011;5681;53.316;13.950;2024-02-21T12:26:41;5.78;;;4.82;;
11247;SDS011;5681;53.316;13.950;2024-02-21T12:29:07;6.03;;;4.82;;
11247;SDS011;5681;53.316;13.950;2024-02-21T12:31:35;5.47;;;4.43;;
11247;SDS011;5681;53.316;13.950;2024-02-21T12:34:01;6.80;;;4.70;;
11247;SDS011;5681;53.316;13.950;2024-02-21T12:36:29;7.70;;;4.30;;
11247;SDS011;5681;53.316;13.950;2024-02-21T12:38:55;5.97;;;4.00;;
11247;SDS011;5681;53.316;13.950;2024-02-21T12:41:23;6.45;;;4.30;;
11247;SDS011;5681;53.316;13.950;2024-02-21T12:43:50;5.45;;;4.43;;
11247;SDS011;5681;53.316;13.950;2024-02-21T12:46:17;5.45;;;4.50;;
11247;SDS011;5681;53.316;13.950;2024-02-21T12:48:43;7.45;;;4.75;;
11247;SDS011;5681;53.316;13.950;2024-02-21T12:51:09;6.40;;;5.03;;
11247;SDS011;5681;53.316;13.950;2024-02-21T12:53:36;5.75;;;4.50;;
11247;SDS011;5681;53.316;13.950;2024-02-21T12:56:02;6.35;;;4.70;;
11247;SDS011;5681;53.316;13.950;2024-02-21T12:58:31;5.72;;;4.93;;
11247;SDS011;5681;53.316;13.950;2024-02-21T13:00:57;6.43;;;4.95;;
11247;SDS011;5681;53.316;13.950;2024-02-21T13:03:24;5.25;;;4.68;;
11247;SDS011;5681;53.316;13.950;2024-02-21T13:05:50;6.60;;;4.68;;
11247;SDS011;5681;53.316;13.950;2024-02-21T13:08:16;7.68;;;4.97;;
11247;SDS011;5681;53.316;13.950;2024-02-21T13:10:45;9.27;;;5.18;;
11247;SDS011;5681;53.316;13.950;2024-02-21T13:13:13;5.78;;;4.80;;
11247;SDS011;5681;53.316;13.950;2024-02-21T13:15:40;6.78;;;4.63;;
11247;SDS011;5681;53.316;13.950;2024-02-21T13:18:08;9.55;;;4.60;;
11247;SDS011;5681;53.316;13.950;2024-02-21T13:20:35;6.18;;;4.32;;
11247;SDS011;5681;53.316;13.950;2024-02-21T13:23:02;5.32;;;4.63;;
11247;SDS011;5681;53.316;13.950;2024-02-21T13:25:29;7.95;;;4.55;;
11247;SDS011;5681;53.316;13.950;2024-02-21T13:27:56;7.78;;;4.75;;
11247;SDS011;5681;53.316;13.950;2024-02-21T13:30:23;5.72;;;4.85;;
11247;SDS011;5681;53.316;13.950;2024-02-21T13:32:51;5.82;;;4.50;;
11247;SDS011;5681;53.316;13.950;2024-02-21T13:35:19;6.28;;;4.57;;
11247;SDS011;5681;53.316;13.950;2024-02-21T13:37:46;7.78;;;4.25;;
11247;SDS011;5681;53.316;13.950;2024-02-21T13:40:12;6.70;;;4.88;;
11247;SDS011;5681;53.316;13.950;2024-02-21T13:42:39;6.18;;;4.18;;
11247;SDS011;5681;53.316;13.950;2024-02-21T13:45:06;8.15;;;4.50;;
11247;SDS011;5681;53.316;13.950;2024-02-21T13:47:33;4.40;;;3.72;;
11247;SDS011;5681;53.316;13.950;2024-02-21T13:50:02;6.88;;;3.80;;
11247;SDS011;5681;53.316;13.950;2024-02-21T13:52:30;5.90;;;4.10;;
11247;SDS011;5681;53.316;13.950;2024-02-21T13:54:58;4.97;;;3.65;;
11247;SDS011;5681;53.316;13.950;2024-02-21T13:57:24;5.03;;;4.07;;
11247;SDS011;5681;53.316;13.950;2024-02-21T13:59:51;5.82;;;4.22;;
11247;SDS011;5681;53.316;13.950;2024-02-21T14:02:17;6.13;;;3.90;;
11247;SDS011;5681;53.316;13.950;2024-02-21T14:04:44;6.38;;;4.00;;
11247;SDS011;5681;53.316;13.950;2024-02-21T14:07:11;5.50;;;4.15;;
11247;SDS011;5681;53.316;13.950;2024-02-21T14:09:38;5.85;;;4.10;;
11247;SDS011;5681;53.316;13.950;2024-02-21T14:12:05;6.88;;;4.10;;
11247;SDS011;5681;53.316;13.950;2024-02-21T14:14:33;8.30;;;5.32;;
11247;SDS011;5681;53.316;13.950;2024-02-21T14:17:00;6.63;;;4.90;;
11247;SDS011;5681;53.316;13.950;2024-02-21T14:19:26;9.23;;;5.25;;
11247;SDS011;5681;53.316;13.950;2024-02-21T14:21:53;12.43;;;6.60;;
11247;SDS011;5681;53.316;13.950;2024-02-21T14:24:20;8.25;;;6.25;;
11247;SDS011;5681;53.316;13.950;2024-02-21T14:26:47;11.05;;;6.45;;